sensor_id;sensor_type;location;lat;lon;timestamp;P1;durP1;ratioP1;P2;durP2;ratioP2
13481;SDS011;6813;60.352;15.746;2022-08-14T00:00:06;4.75;;;2.80;;
13481;SDS011;6813;60.352;15.746;2022-08-14T00:02:37;3.78;;;2.67;;
13481;SDS011;6813;60.352;15.746;2022-08-14T00:05:04;2.75;;;2.53;;
13481;SDS011;6813;60.352;15.746;2022-08-14T00:07:34;3.15;;;2.83;;
13481;SDS011;6813;60.352;15.746;2022-08-14T00:10:00;3.05;;;2.80;;
13481;SDS011;6813;60.352;15.746;2022-08-14T00:12:29;4.82;;;2.85;;
13481;SDS011;6813;60.352;15.746;2022-08-14T00:14:56;2.78;;;2.58;;
13481;SDS011;6813;60.352;15.746;2022-08-14T00:17:22;3.20;;;2.90;;
13481;SDS011;6813;60.352;15.746;2022-08-14T00:19:48;2.83;;;2.50;;
13481;SDS011;6813;60.352;15.746;2022-08-14T00:22:14;6.38;;;2.50;;
13481;SDS011;6813;60.352;15.746;2022-08-14T00:24:43;3.00;;;2.70;;
13481;SDS011;6813;60.352;15.746;2022-08-14T00:27:10;4.25;;;3.20;;
13481;SDS011;6813;60.352;15.746;2022-08-14T00:29:37;3.50;;;2.40;;
13481;SDS011;6813;60.352;15.746;2022-08-14T00:32:03;3.83;;;2.55;;
13481;SDS011;6813;60.352;15.746;2022-08-14T00:34:30;3.30;;;2.97;;
13481;SDS011;6813;60.352;15.746;2022-08-14T00:36:56;2.83;;;2.63;;
13481;SDS011;6813;60.352;15.746;2022-08-14T00:39:21;3.42;;;2.85;;
13481;SDS011;6813;60.352;15.746;2022-08-14T00:41:48;3.88;;;2.70;;
13481;SDS011;6813;60.352;15.746;2022-08-14T00:44:14;3.60;;;3.17;;
13481;SDS011;6813;60.352;15.746;2022-08-14T00:46:40;6.75;;;2.92;;
13481;SDS011;6813;60.352;15.746;2022-08-14T00:49:06;5.75;;;2.95;;
13481;SDS011;6813;60.352;15.746;2022-08-14T00:51:35;3.38;;;3.05;;
13481;SDS011;6813;60.352;15.746;2022-08-14T00:54:02;3.22;;;2.95;;
13481;SDS011;6813;60.352;15.746;2022-08-14T00:56:29;2.80;;;2.60;;
13481;SDS011;6813;60.352;15.746;2022-08-14T00:58:54;4.10;;;2.67;;
13481;SDS011;6813;60.352;15.746;2022-08-14T01:01:20;5.53;;;2.72;;
13481;SDS011;6813;60.352;15.746;2022-08-14T01:03:46;3.05;;;2.85;;
13481;SDS011;6813;60.352;15.746;2022-08-14T01:06:13;4.22;;;2.70;;
13481;SDS011;6813;60.352;15.746;2022-08-14T01:08:41;4.40;;;2.80;;
13481;SDS011;6813;60.352;15.746;2022-08-14T01:11:10;3.30;;;3.10;;
13481;SDS011;6813;60.352;15.746;2022-08-14T01:13:40;3.15;;;2.85;;
13481;SDS011;6813;60.352;15.746;2022-08-14T01:16:09;4.32;;;2.92;;
13481;SDS011;6813;60.352;15.746;2022-08-14T01:18:36;3.10;;;2.80;;
13481;SDS011;6813;60.352;15.746;2022-08-14T01:21:29;3.15;;;2.90;;
13481;SDS011;6813;60.352;15.746;2022-08-14T01:23:57;3.42;;;3.13;;
13481;SDS011;6813;60.352;15.746;2022-08-14T01:26:24;2.90;;;2.50;;
13481;SDS011;6813;60.352;15.746;2022-08-14T01:28:53;3.33;;;2.95;;
13481;SDS011;6813;60.352;15.746;2022-08-14T01:31:25;4.53;;;2.78;;
13481;SDS011;6813;60.352;15.746;2022-08-14T01:33:53;4.38;;;2.70;;
13481;SDS011;6813;60.352;15.746;2022-08-14T01:36:22;2.90;;;2.70;;
13481;SDS011;6813;60.352;15.746;2022-08-14T01:38:52;3.95;;;2.90;;
13481;SDS011;6813;60.352;15.746;2022-08-14T01:41:22;2.45;;;2.25;;
13481;SDS011;6813;60.352;15.746;2022-08-14T01:43:52;2.72;;;2.53;;
13481;SDS011;6813;60.352;15.746;2022-08-14T01:46:26;3.38;;;2.92;;
13481;SDS011;6813;60.352;15.746;2022-08-14T01:48:58;4.30;;;3.30;;
13481;SDS011;6813;60.352;15.746;2022-08-14T01:51:25;3.08;;;2.78;;
13481;SDS011;6813;60.352;15.746;2022-08-14T01:53:54;6.22;;;3.10;;
13481;SDS011;6813;60.352;15.746;2022-08-14T01:56:25;3.75;;;3.45;;
13481;SDS011;6813;60.352;15.746;2022-08-14T01:59:01;3.22;;;2.92;;
13481;SDS011;6813;60.352;15.746;2022-08-14T02:01:32;2.80;;;2.58;;
13481;SDS011;6813;60.352;15.746;2022-08-14T02:04:00;4.53;;;3.13;;
13481;SDS011;6813;60.352;15.746;2022-08-14T02:06:28;3.20;;;2.97;;
13481;SDS011;6813;60.352;15.746;2022-08-14T02:08:54;3.38;;;3.08;;
13481;SDS011;6813;60.352;15.746;2022-08-14T02:11:22;3.90;;;3.20;;
13481;SDS011;6813;60.352;15.746;2022-08-14T02:13:52;4.07;;;3.70;;
13481;SDS011;6813;60.352;15.746;2022-08-14T02:16:38;3.38;;;3.08;;
13481;SDS011;6813;60.352;15.746;2022-08-14T02:19:06;3.47;;;2.95;;
13481;SDS011;6813;60.352;15.746;2022-08-14T02:21:35;4.32;;;3.40;;
13481;SDS011;6813;60.352;15.746;2022-08-14T02:24:02;7.50;;;4.18;;
13481;SDS011;6813;60.352;15.746;2022-08-14T02:26:37;4.53;;;3.60;;
13481;SDS011;6813;60.352;15.746;2022-08-14T02:29:08;3.90;;;3.53;;
13481;SDS011;6813;60.352;15.746;2022-08-14T02:31:37;3.53;;;3.22;;
13481;SDS011;6813;60.352;15.746;2022-08-14T02:34:07;4.13;;;3.75;;
13481;SDS011;6813;60.352;15.746;2022-08-14T02:36:38;3.55;;;3.25;;
13481;SDS011;6813;60.352;15.746;2022-08-14T02:39:05;4.32;;;3.03;;
13481;SDS011;6813;60.352;15.746;2022-08-14T02:41:34;3.72;;;2.92;;
13481;SDS011;6813;60.352;15.746;2022-08-14T02:44:01;3.72;;;2.92;;
13481;SDS011;6813;60.352;15.746;2022-08-14T02:46:31;3.67;;;3.35;;
13481;SDS011;6813;60.352;15.746;2022-08-14T02:48:57;3.70;;;3.40;;
13481;SDS011;6813;60.352;15.746;2022-08-14T02:51:24;6.47;;;3.40;;
13481;SDS011;6813;60.352;15.746;2022-08-14T02:53:50;3.97;;;3.20;;
13481;SDS011;6813;60.352;15.746;2022-08-14T02:56:19;3.67;;;3.20;;
13481;SDS011;6813;60.352;15.746;2022-08-14T02:58:49;4.13;;;3.15;;
13481;SDS011;6813;60.352;15.746;2022-08-14T03:01:16;4.18;;;3.30;;
13481;SDS011;6813;60.352;15.746;2022-08-14T03:03:44;3.10;;;2.90;;
13481;SDS011;6813;60.352;15.746;2022-08-14T03:06:13;3.45;;;3.15;;
13481;SDS011;6813;60.352;15.746;2022-08-14T03:08:40;3.72;;;3.28;;
13481;SDS011;6813;60.352;15.746;2022-08-14T03:11:11;3.13;;;2.92;;
13481;SDS011;6813;60.352;15.746;2022-08-14T03:13:38;3.88;;;2.90;;
13481;SDS011;6813;60.352;15.746;2022-08-14T03:16:07;3.00;;;2.80;;
13481;SDS011;6813;60.352;15.746;2022-08-14T03:18:36;3.75;;;3.03;;
13481;SDS011;6813;60.352;15.746;2022-08-14T03:21:05;3.30;;;3.00;;
13481;SDS011;6813;60.352;15.746;2022-08-14T03:23:33;4.13;;;3.33;;
13481;SDS011;6813;60.352;15.746;2022-08-14T03:26:00;5.03;;;2.90;;
13481;SDS011;6813;60.352;15.746;2022-08-14T03:28:27;3.60;;;3.30;;
13481;SDS011;6813;60.352;15.746;2022-08-14T03:30:54;3.42;;;3.17;;
13481;SDS011;6813;60.352;15.746;2022-08-14T03:33:21;3.70;;;2.78;;
13481;SDS011;6813;60.352;15.746;2022-08-14T03:35:47;3.67;;;3.20;;
13481;SDS011;6813;60.352;15.746;2022-08-14T03:38:15;4.05;;;3.28;;
13481;SDS011;6813;60.352;15.746;2022-08-14T03:40:43;3.70;;;3.22;;
13481;SDS011;6813;60.352;15.746;2022-08-14T03:43:11;4.25;;;3.50;;
13481;SDS011;6813;60.352;15.746;2022-08-14T03:45:38;3.20;;;3.00;;
13481;SDS011;6813;60.352;15.746;2022-08-14T03:48:11;3.30;;;3.00;;
13481;SDS011;6813;60.352;15.746;2022-08-14T03:50:40;3.65;;;3.35;;
13481;SDS011;6813;60.352;15.746;2022-08-14T03:53:08;3.10;;;2.90;;
13481;SDS011;6813;60.352;15.746;2022-08-14T03:55:34;4.00;;;2.95;;
13481;SDS011;6813;60.352;15.746;2022-08-14T03:58:02;3.50;;;3.20;;
13481;SDS011;6813;60.352;15.746;2022-08-14T04:00:28;4.10;;;3.70;;
13481;SDS011;6813;60.352;15.746;2022-08-14T04:02:55;4.47;;;3.38;;
13481;SDS011;6813;60.352;15.746;2022-08-14T04:05:21;4.00;;;3.00;;
13481;SDS011;6813;60.352;15.746;2022-08-14T04:07:49;3.83;;;2.95;;
13481;SDS011;6813;60.352;15.746;2022-08-14T04:10:16;6.43;;;3.55;;
13481;SDS011;6813;60.352;15.746;2022-08-14T04:12:42;3.30;;;2.90;;
13481;SDS011;6813;60.352;15.746;2022-08-14T04:15:08;3.90;;;3.50;;
13481;SDS011;6813;60.352;15.746;2022-08-14T04:17:35;4.10;;;3.40;;
13481;SDS011;6813;60.352;15.746;2022-08-14T04:20:01;3.83;;;3.33;;
13481;SDS011;6813;60.352;15.746;2022-08-14T04:22:31;4.93;;;3.47;;
13481;SDS011;6813;60.352;15.746;2022-08-14T04:24:58;3.33;;;3.03;;
13481;SDS011;6813;60.352;15.746;2022-08-14T04:27:25;6.15;;;3.22;;
13481;SDS011;6813;60.352;15.746;2022-08-14T04:29:53;3.50;;;3.20;;
13481;SDS011;6813;60.352;15.746;2022-08-14T04:32:19;4.10;;;3.70;;
13481;SDS011;6813;60.352;15.746;2022-08-14T04:34:50;4.70;;;3.47;;
13481;SDS011;6813;60.352;15.746;2022-08-14T04:37:19;3.97;;;3.40;;
13481;SDS011;6813;60.352;15.746;2022-08-14T04:40:05;3.65;;;3.38;;
13481;SDS011;6813;60.352;15.746;2022-08-14T04:42:50;3.22;;;2.95;;
13481;SDS011;6813;60.352;15.746;2022-08-14T04:45:34;3.85;;;3.55;;
13481;SDS011;6813;60.352;15.746;2022-08-14T04:48:08;3.35;;;3.05;;
13481;SDS011;6813;60.352;15.746;2022-08-14T04:50:39;4.07;;;2.97;;
13481;SDS011;6813;60.352;15.746;2022-08-14T04:53:15;3.50;;;3.20;;
13481;SDS011;6813;60.352;15.746;2022-08-14T04:55:45;4.45;;;3.30;;
13481;SDS011;6813;60.352;15.746;2022-08-14T04:58:13;4.43;;;3.53;;
13481;SDS011;6813;60.352;15.746;2022-08-14T05:00:43;4.00;;;3.30;;
13481;SDS011;6813;60.352;15.746;2022-08-14T05:03:11;3.63;;;3.30;;
13481;SDS011;6813;60.352;15.746;2022-08-14T05:05:37;4.40;;;3.05;;
13481;SDS011;6813;60.352;15.746;2022-08-14T05:08:12;4.35;;;2.97;;
13481;SDS011;6813;60.352;15.746;2022-08-14T05:10:42;4.53;;;3.17;;
13481;SDS011;6813;60.352;15.746;2022-08-14T05:13:16;3.67;;;3.08;;
13481;SDS011;6813;60.352;15.746;2022-08-14T05:15:50;4.13;;;3.75;;
13481;SDS011;6813;60.352;15.746;2022-08-14T05:18:27;3.92;;;3.22;;
13481;SDS011;6813;60.352;15.746;2022-08-14T05:20:58;4.47;;;4.07;;
13481;SDS011;6813;60.352;15.746;2022-08-14T05:23:26;8.07;;;5.75;;
13481;SDS011;6813;60.352;15.746;2022-08-14T05:25:54;7.22;;;5.72;;
13481;SDS011;6813;60.352;15.746;2022-08-14T05:28:37;6.85;;;3.83;;
13481;SDS011;6813;60.352;15.746;2022-08-14T05:31:06;3.97;;;3.35;;
13481;SDS011;6813;60.352;15.746;2022-08-14T05:33:32;3.70;;;3.10;;
13481;SDS011;6813;60.352;15.746;2022-08-14T05:36:01;3.95;;;3.58;;
13481;SDS011;6813;60.352;15.746;2022-08-14T05:38:32;4.00;;;3.60;;
13481;SDS011;6813;60.352;15.746;2022-08-14T05:41:01;4.13;;;3.67;;
13481;SDS011;6813;60.352;15.746;2022-08-14T05:43:28;3.92;;;3.60;;
13481;SDS011;6813;60.352;15.746;2022-08-14T05:45:55;3.53;;;3.22;;
13481;SDS011;6813;60.352;15.746;2022-08-14T05:48:23;4.32;;;3.67;;
13481;SDS011;6813;60.352;15.746;2022-08-14T05:50:51;4.65;;;3.70;;
13481;SDS011;6813;60.352;15.746;2022-08-14T05:53:19;3.70;;;3.40;;
13481;SDS011;6813;60.352;15.746;2022-08-14T05:55:46;4.20;;;3.10;;
13481;SDS011;6813;60.352;15.746;2022-08-14T05:58:12;3.05;;;2.80;;
13481;SDS011;6813;60.352;15.746;2022-08-14T06:00:38;4.35;;;3.08;;
13481;SDS011;6813;60.352;15.746;2022-08-14T06:03:07;4.80;;;3.03;;
13481;SDS011;6813;60.352;15.746;2022-08-14T06:05:35;3.50;;;3.00;;
13481;SDS011;6813;60.352;15.746;2022-08-14T06:08:02;3.20;;;2.90;;
13481;SDS011;6813;60.352;15.746;2022-08-14T06:10:29;3.47;;;3.17;;
13481;SDS011;6813;60.352;15.746;2022-08-14T06:12:56;3.25;;;2.70;;
13481;SDS011;6813;60.352;15.746;2022-08-14T06:15:25;5.70;;;3.20;;
13481;SDS011;6813;60.352;15.746;2022-08-14T06:17:52;6.43;;;3.10;;
13481;SDS011;6813;60.352;15.746;2022-08-14T06:20:20;5.93;;;2.95;;
13481;SDS011;6813;60.352;15.746;2022-08-14T06:22:47;3.38;;;2.88;;
13481;SDS011;6813;60.352;15.746;2022-08-14T06:25:13;4.38;;;2.72;;
13481;SDS011;6813;60.352;15.746;2022-08-14T06:27:41;4.15;;;3.10;;
13481;SDS011;6813;60.352;15.746;2022-08-14T06:30:13;4.80;;;3.13;;
13481;SDS011;6813;60.352;15.746;2022-08-14T06:32:40;4.68;;;3.28;;
13481;SDS011;6813;60.352;15.746;2022-08-14T06:35:07;5.38;;;3.08;;
13481;SDS011;6813;60.352;15.746;2022-08-14T06:40:16;4.32;;;2.92;;
13481;SDS011;6813;60.352;15.746;2022-08-14T06:42:45;4.60;;;3.03;;
13481;SDS011;6813;60.352;15.746;2022-08-14T06:45:11;3.80;;;2.88;;
13481;SDS011;6813;60.352;15.746;2022-08-14T06:47:39;4.63;;;3.15;;
13481;SDS011;6813;60.352;15.746;2022-08-14T06:50:08;3.33;;;3.03;;
13481;SDS011;6813;60.352;15.746;2022-08-14T06:52:36;3.08;;;2.75;;
13481;SDS011;6813;60.352;15.746;2022-08-14T06:55:04;2.95;;;2.75;;
13481;SDS011;6813;60.352;15.746;2022-08-14T06:57:36;3.28;;;3.00;;
13481;SDS011;6813;60.352;15.746;2022-08-14T07:00:08;3.50;;;2.78;;
13481;SDS011;6813;60.352;15.746;2022-08-14T07:02:37;2.90;;;2.70;;
13481;SDS011;6813;60.352;15.746;2022-08-14T07:05:22;3.33;;;3.03;;
13481;SDS011;6813;60.352;15.746;2022-08-14T07:08:11;3.22;;;2.95;;
13481;SDS011;6813;60.352;15.746;2022-08-14T07:10:45;6.10;;;2.80;;
13481;SDS011;6813;60.352;15.746;2022-08-14T07:13:12;3.10;;;2.70;;
13481;SDS011;6813;60.352;15.746;2022-08-14T07:15:39;3.28;;;2.97;;
13481;SDS011;6813;60.352;15.746;2022-08-14T07:18:06;6.57;;;3.17;;
13481;SDS011;6813;60.352;15.746;2022-08-14T07:20:33;3.88;;;3.40;;
13481;SDS011;6813;60.352;15.746;2022-08-14T07:23:00;3.83;;;3.47;;
13481;SDS011;6813;60.352;15.746;2022-08-14T07:25:27;3.75;;;2.72;;
13481;SDS011;6813;60.352;15.746;2022-08-14T07:27:53;4.22;;;2.35;;
13481;SDS011;6813;60.352;15.746;2022-08-14T07:30:21;4.72;;;3.00;;
13481;SDS011;6813;60.352;15.746;2022-08-14T07:32:47;2.95;;;2.75;;
13481;SDS011;6813;60.352;15.746;2022-08-14T07:35:13;5.70;;;3.05;;
13481;SDS011;6813;60.352;15.746;2022-08-14T07:37:40;4.20;;;3.17;;
13481;SDS011;6813;60.352;15.746;2022-08-14T07:40:06;4.13;;;3.15;;
13481;SDS011;6813;60.352;15.746;2022-08-14T07:42:32;3.60;;;2.92;;
13481;SDS011;6813;60.352;15.746;2022-08-14T07:44:59;4.60;;;2.92;;
13481;SDS011;6813;60.352;15.746;2022-08-14T07:47:25;3.83;;;3.03;;
13481;SDS011;6813;60.352;15.746;2022-08-14T07:50:01;2.80;;;2.60;;
13481;SDS011;6813;60.352;15.746;2022-08-14T07:52:32;3.75;;;2.90;;
13481;SDS011;6813;60.352;15.746;2022-08-14T07:54:59;4.10;;;3.00;;
13481;SDS011;6813;60.352;15.746;2022-08-14T07:57:25;3.63;;;2.80;;
13481;SDS011;6813;60.352;15.746;2022-08-14T07:59:51;2.90;;;2.70;;
13481;SDS011;6813;60.352;15.746;2022-08-14T08:02:17;3.13;;;2.75;;
13481;SDS011;6813;60.352;15.746;2022-08-14T08:04:45;4.88;;;2.92;;
13481;SDS011;6813;60.352;15.746;2022-08-14T08:07:18;3.30;;;3.00;;
13481;SDS011;6813;60.352;15.746;2022-08-14T08:09:47;4.55;;;2.65;;
13481;SDS011;6813;60.352;15.746;2022-08-14T08:12:18;3.50;;;2.83;;
13481;SDS011;6813;60.352;15.746;2022-08-14T08:14:47;3.22;;;2.92;;
13481;SDS011;6813;60.352;15.746;2022-08-14T08:17:18;3.33;;;2.55;;
13481;SDS011;6813;60.352;15.746;2022-08-14T08:19:46;3.35;;;2.58;;
13481;SDS011;6813;60.352;15.746;2022-08-14T08:22:13;4.15;;;2.65;;
13481;SDS011;6813;60.352;15.746;2022-08-14T08:24:40;2.70;;;2.50;;
13481;SDS011;6813;60.352;15.746;2022-08-14T08:27:16;3.13;;;2.83;;
13481;SDS011;6813;60.352;15.746;2022-08-14T08:29:44;3.10;;;2.80;;
13481;SDS011;6813;60.352;15.746;2022-08-14T08:32:11;2.60;;;2.40;;
13481;SDS011;6813;60.352;15.746;2022-08-14T08:34:44;2.78;;;2.58;;
13481;SDS011;6813;60.352;15.746;2022-08-14T08:37:13;3.50;;;2.67;;
13481;SDS011;6813;60.352;15.746;2022-08-14T08:39:46;4.07;;;2.78;;
13481;SDS011;6813;60.352;15.746;2022-08-14T08:42:23;3.03;;;2.72;;
13481;SDS011;6813;60.352;15.746;2022-08-14T08:44:53;2.70;;;2.60;;
13481;SDS011;6813;60.352;15.746;2022-08-14T08:47:19;4.45;;;2.88;;
13481;SDS011;6813;60.352;15.746;2022-08-14T08:49:46;2.45;;;2.25;;
13481;SDS011;6813;60.352;15.746;2022-08-14T08:52:12;2.88;;;2.40;;
13481;SDS011;6813;60.352;15.746;2022-08-14T08:54:38;1.90;;;1.80;;
13481;SDS011;6813;60.352;15.746;2022-08-14T08:57:11;2.40;;;2.20;;
13481;SDS011;6813;60.352;15.746;2022-08-14T08:59:38;2.67;;;2.28;;
13481;SDS011;6813;60.352;15.746;2022-08-14T09:02:05;3.38;;;2.47;;
13481;SDS011;6813;60.352;15.746;2022-08-14T09:04:35;3.53;;;2.50;;
13481;SDS011;6813;60.352;15.746;2022-08-14T09:07:08;2.35;;;2.20;;
13481;SDS011;6813;60.352;15.746;2022-08-14T09:09:35;2.30;;;2.10;;
13481;SDS011;6813;60.352;15.746;2022-08-14T09:12:15;3.47;;;2.38;;
13481;SDS011;6813;60.352;15.746;2022-08-14T09:14:42;2.53;;;2.33;;
13481;SDS011;6813;60.352;15.746;2022-08-14T09:17:08;3.63;;;2.60;;
13481;SDS011;6813;60.352;15.746;2022-08-14T09:19:37;4.68;;;2.70;;
13481;SDS011;6813;60.352;15.746;2022-08-14T09:22:04;3.50;;;2.63;;
13481;SDS011;6813;60.352;15.746;2022-08-14T09:24:31;4.63;;;2.42;;
13481;SDS011;6813;60.352;15.746;2022-08-14T09:26:57;2.63;;;2.38;;
13481;SDS011;6813;60.352;15.746;2022-08-14T09:29:24;3.15;;;2.60;;
13481;SDS011;6813;60.352;15.746;2022-08-14T09:31:55;3.60;;;2.47;;
13481;SDS011;6813;60.352;15.746;2022-08-14T09:34:35;2.83;;;2.63;;
13481;SDS011;6813;60.352;15.746;2022-08-14T09:37:22;2.53;;;2.40;;
13481;SDS011;6813;60.352;15.746;2022-08-14T09:43:15;4.75;;;2.42;;
13481;SDS011;6813;60.352;15.746;2022-08-14T09:46:05;6.57;;;2.60;;
13481;SDS011;6813;60.352;15.746;2022-08-14T09:48:31;4.90;;;2.58;;
13481;SDS011;6813;60.352;15.746;2022-08-14T09:50:59;3.50;;;2.75;;
13481;SDS011;6813;60.352;15.746;2022-08-14T09:53:41;3.10;;;2.30;;
13481;SDS011;6813;60.352;15.746;2022-08-14T09:56:12;2.30;;;2.20;;
13481;SDS011;6813;60.352;15.746;2022-08-14T09:58:42;4.57;;;2.65;;
13481;SDS011;6813;60.352;15.746;2022-08-14T10:01:15;3.00;;;2.67;;
13481;SDS011;6813;60.352;15.746;2022-08-14T10:03:50;3.67;;;2.47;;
13481;SDS011;6813;60.352;15.746;2022-08-14T10:06:21;3.25;;;2.53;;
13481;SDS011;6813;60.352;15.746;2022-08-14T10:09:03;4.03;;;2.38;;
13481;SDS011;6813;60.352;15.746;2022-08-14T10:11:34;2.70;;;2.50;;
13481;SDS011;6813;60.352;15.746;2022-08-14T10:16:52;3.00;;;2.67;;
13481;SDS011;6813;60.352;15.746;2022-08-14T10:19:23;5.78;;;2.85;;
13481;SDS011;6813;60.352;15.746;2022-08-14T10:22:03;4.93;;;3.13;;
13481;SDS011;6813;60.352;15.746;2022-08-14T10:24:35;4.25;;;3.20;;
13481;SDS011;6813;60.352;15.746;2022-08-14T10:27:16;3.22;;;3.00;;
13481;SDS011;6813;60.352;15.746;2022-08-14T10:29:47;3.65;;;3.03;;
13481;SDS011;6813;60.352;15.746;2022-08-14T10:32:16;3.38;;;3.08;;
13481;SDS011;6813;60.352;15.746;2022-08-14T10:34:43;3.40;;;3.10;;
13481;SDS011;6813;60.352;15.746;2022-08-14T10:37:11;4.47;;;2.83;;
13481;SDS011;6813;60.352;15.746;2022-08-14T10:39:41;5.47;;;2.95;;
13481;SDS011;6813;60.352;15.746;2022-08-14T10:42:13;3.58;;;2.63;;
13481;SDS011;6813;60.352;15.746;2022-08-14T10:44:43;5.18;;;2.97;;
13481;SDS011;6813;60.352;15.746;2022-08-14T10:47:15;2.42;;;2.22;;
13481;SDS011;6813;60.352;15.746;2022-08-14T10:49:54;2.80;;;2.60;;
13481;SDS011;6813;60.352;15.746;2022-08-14T10:52:23;2.42;;;2.22;;
13481;SDS011;6813;60.352;15.746;2022-08-14T10:54:51;3.20;;;2.50;;
13481;SDS011;6813;60.352;15.746;2022-08-14T10:57:24;2.60;;;2.40;;
13481;SDS011;6813;60.352;15.746;2022-08-14T10:59:53;2.55;;;2.35;;
13481;SDS011;6813;60.352;15.746;2022-08-14T11:04:57;4.57;;;2.72;;
13481;SDS011;6813;60.352;15.746;2022-08-14T11:07:23;5.97;;;2.40;;
13481;SDS011;6813;60.352;15.746;2022-08-14T11:09:55;2.65;;;2.42;;
13481;SDS011;6813;60.352;15.746;2022-08-14T11:12:26;2.15;;;2.05;;
13481;SDS011;6813;60.352;15.746;2022-08-14T11:15:10;2.75;;;2.55;;
13481;SDS011;6813;60.352;15.746;2022-08-14T11:17:36;2.88;;;2.28;;
13481;SDS011;6813;60.352;15.746;2022-08-14T11:20:04;2.72;;;2.40;;
13481;SDS011;6813;60.352;15.746;2022-08-14T11:22:32;3.90;;;2.30;;
13481;SDS011;6813;60.352;15.746;2022-08-14T11:25:00;2.50;;;2.30;;
13481;SDS011;6813;60.352;15.746;2022-08-14T11:27:30;3.42;;;2.50;;
13481;SDS011;6813;60.352;15.746;2022-08-14T11:30:03;2.70;;;2.50;;
13481;SDS011;6813;60.352;15.746;2022-08-14T11:32:34;4.03;;;2.30;;
13481;SDS011;6813;60.352;15.746;2022-08-14T11:35:03;2.72;;;2.53;;
13481;SDS011;6813;60.352;15.746;2022-08-14T11:37:30;2.60;;;2.40;;
13481;SDS011;6813;60.352;15.746;2022-08-14T11:40:01;3.53;;;2.50;;
13481;SDS011;6813;60.352;15.746;2022-08-14T11:42:28;2.50;;;2.30;;
13481;SDS011;6813;60.352;15.746;2022-08-14T11:44:59;2.53;;;2.33;;
13481;SDS011;6813;60.352;15.746;2022-08-14T11:47:31;4.38;;;2.42;;
13481;SDS011;6813;60.352;15.746;2022-08-14T11:49:57;2.58;;;2.40;;
13481;SDS011;6813;60.352;15.746;2022-08-14T11:52:32;2.67;;;2.47;;
13481;SDS011;6813;60.352;15.746;2022-08-14T11:54:59;3.10;;;2.42;;
13481;SDS011;6813;60.352;15.746;2022-08-14T11:57:25;5.53;;;2.40;;
13481;SDS011;6813;60.352;15.746;2022-08-14T12:00:04;5.43;;;2.67;;
13481;SDS011;6813;60.352;15.746;2022-08-14T12:02:54;4.53;;;2.30;;
13481;SDS011;6813;60.352;15.746;2022-08-14T12:05:34;2.38;;;2.28;;
13481;SDS011;6813;60.352;15.746;2022-08-14T12:08:03;3.72;;;2.75;;
13481;SDS011;6813;60.352;15.746;2022-08-14T12:10:38;2.65;;;2.45;;
13481;SDS011;6813;60.352;15.746;2022-08-14T12:13:12;5.45;;;2.80;;
13481;SDS011;6813;60.352;15.746;2022-08-14T12:15:41;2.72;;;2.25;;
13481;SDS011;6813;60.352;15.746;2022-08-14T12:18:07;2.97;;;2.63;;
13481;SDS011;6813;60.352;15.746;2022-08-14T12:20:35;2.67;;;2.42;;
13481;SDS011;6813;60.352;15.746;2022-08-14T12:23:03;3.65;;;2.38;;
13481;SDS011;6813;60.352;15.746;2022-08-14T12:25:32;2.63;;;2.42;;
13481;SDS011;6813;60.352;15.746;2022-08-14T12:28:04;2.35;;;2.25;;
13481;SDS011;6813;60.352;15.746;2022-08-14T12:30:39;3.97;;;2.50;;
13481;SDS011;6813;60.352;15.746;2022-08-14T12:33:22;6.03;;;2.60;;
13481;SDS011;6813;60.352;15.746;2022-08-14T12:35:53;2.40;;;2.20;;
13481;SDS011;6813;60.352;15.746;2022-08-14T12:41:16;3.60;;;2.50;;
13481;SDS011;6813;60.352;15.746;2022-08-14T12:43:54;3.83;;;2.47;;
13481;SDS011;6813;60.352;15.746;2022-08-14T12:49:19;3.30;;;2.67;;
13481;SDS011;6813;60.352;15.746;2022-08-14T12:51:57;2.78;;;2.33;;
13481;SDS011;6813;60.352;15.746;2022-08-14T12:54:24;2.83;;;2.35;;
13481;SDS011;6813;60.352;15.746;2022-08-14T12:57:00;2.47;;;2.30;;
13481;SDS011;6813;60.352;15.746;2022-08-14T12:59:31;3.00;;;2.58;;
13481;SDS011;6813;60.352;15.746;2022-08-14T13:01:58;4.60;;;2.10;;
13481;SDS011;6813;60.352;15.746;2022-08-14T13:04:25;3.45;;;2.58;;
13481;SDS011;6813;60.352;15.746;2022-08-14T13:06:55;3.08;;;2.78;;
13481;SDS011;6813;60.352;15.746;2022-08-14T13:09:34;2.47;;;2.28;;
13481;SDS011;6813;60.352;15.746;2022-08-14T13:12:03;3.83;;;2.40;;
13481;SDS011;6813;60.352;15.746;2022-08-14T13:14:30;3.05;;;2.58;;
13481;SDS011;6813;60.352;15.746;2022-08-14T13:16:58;4.85;;;3.00;;
13481;SDS011;6813;60.352;15.746;2022-08-14T13:19:27;2.47;;;2.28;;
13481;SDS011;6813;60.352;15.746;2022-08-14T13:21:54;2.85;;;2.28;;
13481;SDS011;6813;60.352;15.746;2022-08-14T13:24:21;3.50;;;2.67;;
13481;SDS011;6813;60.352;15.746;2022-08-14T13:26:49;3.00;;;2.80;;
13481;SDS011;6813;60.352;15.746;2022-08-14T13:29:19;3.67;;;3.15;;
13481;SDS011;6813;60.352;15.746;2022-08-14T13:31:48;4.13;;;2.85;;
13481;SDS011;6813;60.352;15.746;2022-08-14T13:34:25;2.63;;;2.42;;
13481;SDS011;6813;60.352;15.746;2022-08-14T13:36:52;3.42;;;2.38;;
13481;SDS011;6813;60.352;15.746;2022-08-14T13:39:21;2.75;;;2.55;;
13481;SDS011;6813;60.352;15.746;2022-08-14T13:41:49;3.95;;;2.38;;
13481;SDS011;6813;60.352;15.746;2022-08-14T13:44:16;2.75;;;2.30;;
13481;SDS011;6813;60.352;15.746;2022-08-14T13:46:46;3.00;;;2.65;;
13481;SDS011;6813;60.352;15.746;2022-08-14T13:49:13;3.50;;;2.20;;
13481;SDS011;6813;60.352;15.746;2022-08-14T13:51:42;3.92;;;2.38;;
13481;SDS011;6813;60.352;15.746;2022-08-14T13:54:16;3.30;;;2.15;;
13481;SDS011;6813;60.352;15.746;2022-08-14T13:56:47;7.28;;;2.47;;
13481;SDS011;6813;60.352;15.746;2022-08-14T13:59:14;2.65;;;2.40;;
13481;SDS011;6813;60.352;15.746;2022-08-14T14:01:40;3.30;;;2.67;;
13481;SDS011;6813;60.352;15.746;2022-08-14T14:04:16;3.97;;;2.53;;
13481;SDS011;6813;60.352;15.746;2022-08-14T14:06:43;2.75;;;2.47;;
13481;SDS011;6813;60.352;15.746;2022-08-14T14:09:11;2.63;;;2.35;;
13481;SDS011;6813;60.352;15.746;2022-08-14T14:11:40;2.80;;;2.60;;
13481;SDS011;6813;60.352;15.746;2022-08-14T14:14:07;5.55;;;2.47;;
13481;SDS011;6813;60.352;15.746;2022-08-14T14:16:36;2.38;;;2.10;;
13481;SDS011;6813;60.352;15.746;2022-08-14T14:19:04;2.80;;;2.47;;
13481;SDS011;6813;60.352;15.746;2022-08-14T14:21:32;3.70;;;2.65;;
13481;SDS011;6813;60.352;15.746;2022-08-14T14:23:58;3.20;;;2.60;;
13481;SDS011;6813;60.352;15.746;2022-08-14T14:26:25;2.45;;;2.30;;
13481;SDS011;6813;60.352;15.746;2022-08-14T14:28:55;2.70;;;2.50;;
13481;SDS011;6813;60.352;15.746;2022-08-14T14:31:24;3.08;;;2.78;;
13481;SDS011;6813;60.352;15.746;2022-08-14T14:33:56;2.85;;;2.30;;
13481;SDS011;6813;60.352;15.746;2022-08-14T14:36:29;5.28;;;3.20;;
13481;SDS011;6813;60.352;15.746;2022-08-14T14:38:57;2.80;;;2.60;;
13481;SDS011;6813;60.352;15.746;2022-08-14T14:41:26;3.08;;;2.85;;
13481;SDS011;6813;60.352;15.746;2022-08-14T14:43:53;2.88;;;2.45;;
13481;SDS011;6813;60.352;15.746;2022-08-14T14:46:21;3.47;;;2.50;;
13481;SDS011;6813;60.352;15.746;2022-08-14T14:48:48;2.85;;;2.50;;
13481;SDS011;6813;60.352;15.746;2022-08-14T14:51:14;2.75;;;2.53;;
13481;SDS011;6813;60.352;15.746;2022-08-14T14:53:41;2.55;;;2.38;;
13481;SDS011;6813;60.352;15.746;2022-08-14T14:56:08;2.72;;;2.53;;
13481;SDS011;6813;60.352;15.746;2022-08-14T14:58:37;3.15;;;2.85;;
13481;SDS011;6813;60.352;15.746;2022-08-14T15:01:07;7.03;;;3.95;;
13481;SDS011;6813;60.352;15.746;2022-08-14T15:03:34;3.13;;;2.83;;
13481;SDS011;6813;60.352;15.746;2022-08-14T15:06:02;3.70;;;2.83;;
13481;SDS011;6813;60.352;15.746;2022-08-14T15:08:29;3.00;;;2.53;;
13481;SDS011;6813;60.352;15.746;2022-08-14T15:10:56;2.70;;;2.50;;
13481;SDS011;6813;60.352;15.746;2022-08-14T15:13:24;2.90;;;2.60;;
13481;SDS011;6813;60.352;15.746;2022-08-14T15:15:51;4.63;;;2.78;;
13481;SDS011;6813;60.352;15.746;2022-08-14T15:18:19;3.38;;;3.08;;